| Station | Date | Time | Temp (°F) | RH (%) | Dew Pt (°F) | Wind Dir (°) | Wind Spd (mph) | Wind Gust (mph) | Solar Rad (W/m2) | Pressure (mb) | Daily Min Temp (°F) | Daily Max Temp (°F) | Daily Max Wind (mph) | Daily Rain (In) | Yest MinT (°F) | Yest MaxT (°F) | Yest MaxGst (mph) | Yest Precip (In) | MinBV Day (V) |
|---|---|---|---|---|---|---|---|---|---|---|---|---|---|---|---|---|---|---|---|
| MWA Office | 5/7/26 | 2215 | 68.8 3.4 | 45 2 | 46.8 2.0 | SW | 233 | 0.3 1.4 | 1.8 3.3 | 0 0 | 1,013.8 1.8 | 47.1 5.6 | 91.1 8.7 | 21.5 2.2 | 0.00 | 41.6 | 82.4 | 19.3 | 0.00 | 12.4 0.0 |
| MWA OPS | 5/7/26 | 2215 | 64.9 1.9 | 60 4 | 50.7 3.8 | S | 169 | 4.4 0.5 | 8.1 1.1 | 0 0 | 1,014.2 1.8 | 50.4 8.5 | 89.5 8.2 | 21.3 3.3 | 0.00 | 41.9 | 81.3 | 18.0 | 0.00 | 12.8 0.1 |
| LV-PS | 5/7/26 | 2215 | 73.7 7.3 | 30 5 | 40.4 10.9 | NW | 312 | 4.1 0.6 | 7.9 1.5 | 0 0 | 1,011.8 2.2 | 53.2 7.0 | 89.8 8.9 | 23.9 5.5 | 0.00 | 46.2 | 80.9 | 18.4 | 0.00 | 12.8 0.0 |
| JV-PS | 5/7/26 | 2215 | 76.9 9.7 | 25 0 | 38.1 7.9 | W | 269 | 9.3 4.5 | 15.1 8.8 | 0 0 | 1,010.6 3.3 | 51.8 3.3 | 90.0 9.7 | 22.1 1.3 | 0.00 | 48.5 | 80.3 | 23.4 | 0.02 | 12.9 0.0 |
| BDVWA | 5/7/26 | 2215 | 75.7 12.1 | 24 3 | 36.9 7.8 | WNW | 293 | 13.8 10.5 | 25.4 20.6 | 0 0 | 1,009.7 5.0 | 62.7 15.5 | 86.3 9.3 | 26.3 2.2 | 0.00 | 47.2 | 77.0 | 24.1 | 0.03 | 12.9 0.1 |
| Newberry Springs | 5/7/26 | 2215 | 82.5 11.7 | 27 3 | 45.4 13.3 | WSW | 239 | 17.5 15.5 | 30.2 26.3 | 0 0 | 1,009.1 3.6 | 62.1 9.5 | 95.3 9.9 | 30.2 4.8 | 0.00 | 52.5 | 85.4 | 25.4 | 0.00 | 12.9 0.0 |
| Pinon Hills | 5/7/26 | 2215 | 67.8 6.2 | 27 15 | 33.0 5.5 | SW | 223 | 8.9 5.1 | 18.8 9.0 | 0 0 | 1,012.3 2.6 | 57.6 19.5 | 81.0 8.7 | 25.2 5.9 | 0.00 | 38.1 | 72.3 | 19.3 | 0.00 | 12.9 0.1 |
| Helendale | 5/7/26 | 2215 | 73.3 3.2 | 42 0 | 49.1 3.1 | SSW | 211 | 7.7 3.1 | 13.2 2.8 | 0 0 | 1,011.6 1.9 | 49.2 4.4 | 93.3 9.0 | 29.2 7.0 | 0.00 | 44.9 | 84.3 | 22.1 | 0.00 | 12.7 0.0 |
| Lenwood | 5/7/26 | 2215 | 73.8 3.6 | 40 1 | 47.9 4.1 | SSW | 212 | 9.7 2.6 | 15.8 4.2 | 0 0 | 1,011.6 1.9 | 48.4 5.9 | 93.9 8.4 | 25.4 11.6 | 0.00 | 42.5 | 85.5 | 14.0 | 0.00 | 12.8 0.0 |
| Oak Hills | 5/7/26 | 2215 | 61.2 5.4 | 68 5 | 50.5 3.4 | SW | 214 | 7.6 0.4 | 13.2 0.7 | 0 0 | 1,014.8 2.3 | 51.6 12.2 | 81.9 7.1 | 18.2 0.0 | 0.00 | 39.3 | 74.8 | 18.2 | 0.00 | 12.9 0.0 |
| Pipes Wash Canyon | 5/7/26 | 2145 | 69.8 10.4 | 25 4 | 32.8 5.1 | W | 278 | 7.2 3.9 | 13.8 5.7 | 0 0 | 1,010.3 4.8 | 56.0 11.7 | 82.9 9.8 | 31.1 11.8 | 0.00 | 44.3 | 73.1 | 19.3 | 0.00 | 12.9 0.0 |
| Max | 82.5 | 68 | 50.7 | - | 17.5 | 30.2 | 0 | 1,014.8 | 62.7 | 95.3 | 31.1 | 0.00 | 52.5 | 85.5 | 25.4 | 0.03 | 12.9 | ||
| Avg | 71.7 | 38 | 42.9 | - | 8.2 | 14.8 | 0 | 1,011.8 | - | - | - | - | - | - | - | - | - | ||
| Min | 61.2 | 24 | 32.8 | - | 0.3 | 1.8 | 0 | 1,009.1 | 47.1 | 81.0 | 18.2 | 0.00 | 38.1 | 72.3 | 14.0 | 0.00 | 12.4 |
| Station | Date | Time | Latest Rain (In) | Daily Rain (In) | Yest Precip (In) | Month Precip (In) | Season Precip (In) | Daily ETo (in) | Yest ETo (In) | 7 Day ETo (in) |
|---|---|---|---|---|---|---|---|---|---|---|
| MWA Office | 5/7/26 | 2215 | 0.00 | 0.00 | 0.00 | 0.00 | 4.30 | 0.259 | 0.21 | 1.54 |
| MWA OPS | 5/7/26 | 2215 | 0.00 | 0.00 | 0.00 | 0.00 | 9.32 | 0.263 | 0.22 | 1.55 |
| LV-PS | 5/7/26 | 2215 | 0.00 | 0.00 | 0.00 | 0.00 | 3.63 | 0.289 | 0.24 | 1.77 |
| JV-PS | 5/7/26 | 2215 | 0.00 | 0.00 | 0.02 | 0.02 | 6.39 | 0.293 | 0.24 | 1.80 |
| BDVWA | 5/7/26 | 2215 | 0.00 | 0.00 | 0.03 | 0.03 | 6.39 | 0.301 | 0.24 | 1.72 |
| Newberry Springs | 5/7/26 | 2215 | 0.00 | 0.00 | 0.00 | 0.00 | 2.70 | 0.335 | 0.26 | 1.95 |
| Pinon Hills | 5/7/26 | 2215 | 0.00 | 0.00 | 0.00 | 0.00 | 15.51 | 0.273 | 0.22 | 1.48 |
| Helendale | 5/7/26 | 2215 | 0.00 | 0.00 | 0.00 | 0.00 | 5.55 | 0.298 | 0.24 | 1.73 |
| Lenwood | 5/7/26 | 2215 | 0.00 | 0.00 | 0.00 | 0.00 | 4.24 | 0.290 | 0.24 | 1.81 |
| Oak Hills | 5/7/26 | 2215 | 0.00 | 0.00 | 0.00 | 0.00 | 14.72 | 0.245 | 0.22 | 1.33 |
| Pipes Wash Canyon | 5/7/26 | 2145 | 0.00 | 0.00 | 0.00 | 0.00 | 13.92 | 0.263 | 0.23 | 1.47 |
| Max | 0.00 | 0.00 | 0.03 | 0.03 | 15.51 | 0.335 | 0.26 | 1.95 | ||
| Avg | 0.00 | - | - | - | - | - | - | - | ||
| Min | 0.00 | 0.00 | 0.00 | 0.00 | 2.70 | 0.245 | 0.21 | 1.33 |